sensor_id;sensor_type;location;lat;lon;timestamp;temperature;humidity
21092;DHT22;10704;42.678;23.288;2023-09-19T00:00:40;16.20;99.90
21092;DHT22;10704;42.678;23.288;2023-09-19T00:03:07;16.20;99.90
21092;DHT22;10704;42.678;23.288;2023-09-19T00:05:35;16.20;99.90
21092;DHT22;10704;42.678;23.288;2023-09-19T00:08:02;16.10;99.90
21092;DHT22;10704;42.678;23.288;2023-09-19T00:10:30;16.20;99.90
21092;DHT22;10704;42.678;23.288;2023-09-19T00:13:04;16.10;99.90
21092;DHT22;10704;42.678;23.288;2023-09-19T00:15:36;16.10;99.90
21092;DHT22;10704;42.678;23.288;2023-09-19T00:18:03;16.10;99.90
21092;DHT22;10704;42.678;23.288;2023-09-19T00:20:32;16.10;99.90
21092;DHT22;10704;42.678;23.288;2023-09-19T00:23:00;16.10;99.90
21092;DHT22;10704;42.678;23.288;2023-09-19T00:25:37;16.00;99.90
21092;DHT22;10704;42.678;23.288;2023-09-19T00:28:04;16.00;99.90
21092;DHT22;10704;42.678;23.288;2023-09-19T00:30:31;16.00;99.90
21092;DHT22;10704;42.678;23.288;2023-09-19T00:32:57;16.10;99.90
21092;DHT22;10704;42.678;23.288;2023-09-19T00:35:23;15.90;99.90
21092;DHT22;10704;42.678;23.288;2023-09-19T00:37:53;15.80;99.90
21092;DHT22;10704;42.678;23.288;2023-09-19T00:40:19;15.70;99.90
21092;DHT22;10704;42.678;23.288;2023-09-19T00:42:48;15.70;99.90
21092;DHT22;10704;42.678;23.288;2023-09-19T00:45:16;15.80;99.90
21092;DHT22;10704;42.678;23.288;2023-09-19T00:47:48;15.80;99.90
21092;DHT22;10704;42.678;23.288;2023-09-19T00:50:19;15.80;99.90
21092;DHT22;10704;42.678;23.288;2023-09-19T00:52:47;15.80;99.90
21092;DHT22;10704;42.678;23.288;2023-09-19T00:55:15;15.70;99.90
21092;DHT22;10704;42.678;23.288;2023-09-19T00:57:41;15.70;99.90
21092;DHT22;10704;42.678;23.288;2023-09-19T01:00:09;15.70;99.90
21092;DHT22;10704;42.678;23.288;2023-09-19T01:02:44;15.60;99.90
21092;DHT22;10704;42.678;23.288;2023-09-19T01:05:13;15.50;99.90
21092;DHT22;10704;42.678;23.288;2023-09-19T01:07:40;15.50;99.90
21092;DHT22;10704;42.678;23.288;2023-09-19T01:10:15;15.50;99.90
21092;DHT22;10704;42.678;23.288;2023-09-19T01:20:41;15.50;99.90
21092;DHT22;10704;42.678;23.288;2023-09-19T01:29:10;15.60;99.90
21092;DHT22;10704;42.678;23.288;2023-09-19T01:31:40;15.60;99.90
21092;DHT22;10704;42.678;23.288;2023-09-19T01:34:08;15.60;99.90
21092;DHT22;10704;42.678;23.288;2023-09-19T01:36:36;15.50;99.90
21092;DHT22;10704;42.678;23.288;2023-09-19T01:39:07;15.50;99.90
21092;DHT22;10704;42.678;23.288;2023-09-19T01:41:56;15.40;99.90
21092;DHT22;10704;42.678;23.288;2023-09-19T01:44:54;15.40;99.90
21092;DHT22;10704;42.678;23.288;2023-09-19T01:47:35;15.20;99.90
21092;DHT22;10704;42.678;23.288;2023-09-19T01:52:45;15.10;99.90
21092;DHT22;10704;42.678;23.288;2023-09-19T01:55:14;15.00;99.90
21092;DHT22;10704;42.678;23.288;2023-09-19T01:57:58;14.80;99.90
21092;DHT22;10704;42.678;23.288;2023-09-19T02:00:28;14.70;99.90
21092;DHT22;10704;42.678;23.288;2023-09-19T02:02:56;14.70;99.90
21092;DHT22;10704;42.678;23.288;2023-09-19T02:05:25;14.70;99.90
21092;DHT22;10704;42.678;23.288;2023-09-19T02:07:54;14.70;99.90
21092;DHT22;10704;42.678;23.288;2023-09-19T02:10:21;14.70;99.90
21092;DHT22;10704;42.678;23.288;2023-09-19T02:12:47;14.60;99.90
21092;DHT22;10704;42.678;23.288;2023-09-19T02:15:14;14.60;99.90
21092;DHT22;10704;42.678;23.288;2023-09-19T02:17:42;14.50;99.90
21092;DHT22;10704;42.678;23.288;2023-09-19T02:20:11;14.40;99.90
21092;DHT22;10704;42.678;23.288;2023-09-19T02:22:43;14.40;99.90
21092;DHT22;10704;42.678;23.288;2023-09-19T02:25:10;14.40;99.90
21092;DHT22;10704;42.678;23.288;2023-09-19T02:27:36;14.40;99.90
21092;DHT22;10704;42.678;23.288;2023-09-19T02:30:04;14.40;99.90
21092;DHT22;10704;42.678;23.288;2023-09-19T02:32:30;14.50;99.90
21092;DHT22;10704;42.678;23.288;2023-09-19T02:34:57;14.40;99.90
21092;DHT22;10704;42.678;23.288;2023-09-19T02:37:27;14.40;99.90
21092;DHT22;10704;42.678;23.288;2023-09-19T02:39:53;14.40;99.90
21092;DHT22;10704;42.678;23.288;2023-09-19T02:42:19;14.40;99.90
21092;DHT22;10704;42.678;23.288;2023-09-19T02:44:45;14.40;99.90
21092;DHT22;10704;42.678;23.288;2023-09-19T02:47:12;14.40;99.90
21092;DHT22;10704;42.678;23.288;2023-09-19T02:49:40;14.40;99.90
21092;DHT22;10704;42.678;23.288;2023-09-19T02:52:09;14.40;99.90
21092;DHT22;10704;42.678;23.288;2023-09-19T02:54:37;14.30;99.90
21092;DHT22;10704;42.678;23.288;2023-09-19T02:57:03;14.30;99.90
21092;DHT22;10704;42.678;23.288;2023-09-19T02:59:32;14.30;99.90
21092;DHT22;10704;42.678;23.288;2023-09-19T03:01:58;14.30;99.90
21092;DHT22;10704;42.678;23.288;2023-09-19T03:04:26;14.30;99.90
21092;DHT22;10704;42.678;23.288;2023-09-19T03:06:54;14.20;99.90
21092;DHT22;10704;42.678;23.288;2023-09-19T03:09:24;14.20;99.90
21092;DHT22;10704;42.678;23.288;2023-09-19T03:11:51;14.30;99.90
21092;DHT22;10704;42.678;23.288;2023-09-19T03:14:16;14.30;99.90
21092;DHT22;10704;42.678;23.288;2023-09-19T03:16:43;14.20;99.90
21092;DHT22;10704;42.678;23.288;2023-09-19T03:19:10;14.20;99.90
21092;DHT22;10704;42.678;23.288;2023-09-19T03:21:37;14.10;99.90
21092;DHT22;10704;42.678;23.288;2023-09-19T03:24:04;14.20;99.90
21092;DHT22;10704;42.678;23.288;2023-09-19T03:26:31;14.10;99.90
21092;DHT22;10704;42.678;23.288;2023-09-19T03:28:57;14.10;99.90
21092;DHT22;10704;42.678;23.288;2023-09-19T03:31:23;14.10;99.90
21092;DHT22;10704;42.678;23.288;2023-09-19T03:33:49;14.10;99.90
21092;DHT22;10704;42.678;23.288;2023-09-19T03:36:15;14.20;99.90
21092;DHT22;10704;42.678;23.288;2023-09-19T03:42:28;14.10;99.90
21092;DHT22;10704;42.678;23.288;2023-09-19T03:44:54;14.00;99.90
21092;DHT22;10704;42.678;23.288;2023-09-19T03:47:21;14.00;99.90
21092;DHT22;10704;42.678;23.288;2023-09-19T03:49:48;13.90;99.90
21092;DHT22;10704;42.678;23.288;2023-09-19T03:52:14;14.00;99.90
21092;DHT22;10704;42.678;23.288;2023-09-19T03:54:41;14.20;99.90
21092;DHT22;10704;42.678;23.288;2023-09-19T03:57:08;14.30;99.90
21092;DHT22;10704;42.678;23.288;2023-09-19T03:59:34;14.30;99.90
21092;DHT22;10704;42.678;23.288;2023-09-19T04:02:01;14.30;99.90
21092;DHT22;10704;42.678;23.288;2023-09-19T04:04:27;14.40;99.90
21092;DHT22;10704;42.678;23.288;2023-09-19T04:06:55;14.30;99.90
21092;DHT22;10704;42.678;23.288;2023-09-19T04:09:20;14.30;99.90
21092;DHT22;10704;42.678;23.288;2023-09-19T04:11:46;14.30;99.90
21092;DHT22;10704;42.678;23.288;2023-09-19T04:14:13;14.20;99.90
21092;DHT22;10704;42.678;23.288;2023-09-19T04:16:39;14.20;99.90
21092;DHT22;10704;42.678;23.288;2023-09-19T04:19:05;14.30;99.90
21092;DHT22;10704;42.678;23.288;2023-09-19T04:21:32;14.30;99.90
21092;DHT22;10704;42.678;23.288;2023-09-19T04:23:58;14.30;99.90
21092;DHT22;10704;42.678;23.288;2023-09-19T04:26:24;14.30;99.90
21092;DHT22;10704;42.678;23.288;2023-09-19T04:28:51;14.40;99.90
21092;DHT22;10704;42.678;23.288;2023-09-19T04:31:17;14.30;99.90
21092;DHT22;10704;42.678;23.288;2023-09-19T04:33:45;14.30;99.90
21092;DHT22;10704;42.678;23.288;2023-09-19T04:36:11;14.30;99.90
21092;DHT22;10704;42.678;23.288;2023-09-19T04:38:38;14.50;99.90
21092;DHT22;10704;42.678;23.288;2023-09-19T04:41:05;14.50;99.90
21092;DHT22;10704;42.678;23.288;2023-09-19T04:43:31;14.60;99.90
21092;DHT22;10704;42.678;23.288;2023-09-19T04:45:57;14.60;99.90
21092;DHT22;10704;42.678;23.288;2023-09-19T04:48:26;14.70;99.90
21092;DHT22;10704;42.678;23.288;2023-09-19T04:50:52;14.80;99.90
21092;DHT22;10704;42.678;23.288;2023-09-19T04:53:18;14.90;99.90
21092;DHT22;10704;42.678;23.288;2023-09-19T04:55:52;14.90;99.90
21092;DHT22;10704;42.678;23.288;2023-09-19T04:58:18;15.00;99.90
21092;DHT22;10704;42.678;23.288;2023-09-19T05:00:45;15.20;99.90
21092;DHT22;10704;42.678;23.288;2023-09-19T05:03:11;15.40;99.90
21092;DHT22;10704;42.678;23.288;2023-09-19T05:05:37;15.70;99.90
21092;DHT22;10704;42.678;23.288;2023-09-19T05:08:04;15.80;99.90
21092;DHT22;10704;42.678;23.288;2023-09-19T05:10:32;16.00;99.90
21092;DHT22;10704;42.678;23.288;2023-09-19T05:12:58;16.20;99.90
21092;DHT22;10704;42.678;23.288;2023-09-19T05:15:24;16.30;99.90
21092;DHT22;10704;42.678;23.288;2023-09-19T05:17:51;16.50;99.90
21092;DHT22;10704;42.678;23.288;2023-09-19T05:20:17;16.70;99.90
21092;DHT22;10704;42.678;23.288;2023-09-19T05:23:07;16.90;99.90
21092;DHT22;10704;42.678;23.288;2023-09-19T05:25:36;17.00;99.90
21092;DHT22;10704;42.678;23.288;2023-09-19T05:28:09;17.20;99.90
21092;DHT22;10704;42.678;23.288;2023-09-19T05:30:37;17.20;99.90
21092;DHT22;10704;42.678;23.288;2023-09-19T05:33:07;17.20;99.90
21092;DHT22;10704;42.678;23.288;2023-09-19T05:35:33;17.30;99.90
21092;DHT22;10704;42.678;23.288;2023-09-19T05:38:00;17.40;99.90
21092;DHT22;10704;42.678;23.288;2023-09-19T05:40:26;17.60;99.90
21092;DHT22;10704;42.678;23.288;2023-09-19T05:42:52;17.70;99.90
21092;DHT22;10704;42.678;23.288;2023-09-19T05:45:18;17.60;99.90
21092;DHT22;10704;42.678;23.288;2023-09-19T05:47:53;17.50;99.90
21092;DHT22;10704;42.678;23.288;2023-09-19T05:50:29;17.30;99.90
21092;DHT22;10704;42.678;23.288;2023-09-19T05:52:56;17.30;99.90
21092;DHT22;10704;42.678;23.288;2023-09-19T05:55:22;17.40;99.90
21092;DHT22;10704;42.678;23.288;2023-09-19T05:57:51;17.60;99.90
21092;DHT22;10704;42.678;23.288;2023-09-19T06:00:19;17.60;99.90
21092;DHT22;10704;42.678;23.288;2023-09-19T06:02:55;17.70;99.90
21092;DHT22;10704;42.678;23.288;2023-09-19T06:05:23;17.80;99.90
21092;DHT22;10704;42.678;23.288;2023-09-19T06:07:49;17.70;99.90
21092;DHT22;10704;42.678;23.288;2023-09-19T06:10:16;17.60;99.90
21092;DHT22;10704;42.678;23.288;2023-09-19T06:12:43;17.60;99.90
21092;DHT22;10704;42.678;23.288;2023-09-19T06:15:11;17.50;99.90
21092;DHT22;10704;42.678;23.288;2023-09-19T06:17:42;17.70;99.90
21092;DHT22;10704;42.678;23.288;2023-09-19T06:20:08;17.90;99.90
21092;DHT22;10704;42.678;23.288;2023-09-19T06:22:44;18.30;99.90
21092;DHT22;10704;42.678;23.288;2023-09-19T06:25:12;18.60;99.90
21092;DHT22;10704;42.678;23.288;2023-09-19T06:27:48;18.90;99.90
21092;DHT22;10704;42.678;23.288;2023-09-19T06:30:14;19.10;99.90
21092;DHT22;10704;42.678;23.288;2023-09-19T06:32:41;19.50;99.90
21092;DHT22;10704;42.678;23.288;2023-09-19T06:35:13;19.80;99.90
21092;DHT22;10704;42.678;23.288;2023-09-19T06:37:40;20.10;99.90
21092;DHT22;10704;42.678;23.288;2023-09-19T06:40:11;20.00;99.90
21092;DHT22;10704;42.678;23.288;2023-09-19T06:42:49;20.10;99.90
21092;DHT22;10704;42.678;23.288;2023-09-19T06:45:15;19.90;99.90
21092;DHT22;10704;42.678;23.288;2023-09-19T06:47:49;19.70;99.90
21092;DHT22;10704;42.678;23.288;2023-09-19T06:50:25;19.80;99.90
21092;DHT22;10704;42.678;23.288;2023-09-19T06:52:52;20.00;99.90
21092;DHT22;10704;42.678;23.288;2023-09-19T06:55:20;20.00;99.90
21092;DHT22;10704;42.678;23.288;2023-09-19T06:57:47;20.00;99.90
21092;DHT22;10704;42.678;23.288;2023-09-19T07:00:14;20.10;99.90
21092;DHT22;10704;42.678;23.288;2023-09-19T07:03:07;20.40;99.90
21092;DHT22;10704;42.678;23.288;2023-09-19T07:05:34;20.50;99.90
21092;DHT22;10704;42.678;23.288;2023-09-19T07:08:05;20.60;99.90
21092;DHT22;10704;42.678;23.288;2023-09-19T07:10:32;20.70;99.90
21092;DHT22;10704;42.678;23.288;2023-09-19T07:13:00;20.80;99.90
21092;DHT22;10704;42.678;23.288;2023-09-19T07:15:27;20.80;99.90
21092;DHT22;10704;42.678;23.288;2023-09-19T07:17:54;20.90;99.90
21092;DHT22;10704;42.678;23.288;2023-09-19T07:20:23;20.90;99.90
21092;DHT22;10704;42.678;23.288;2023-09-19T07:22:52;20.80;99.90
21092;DHT22;10704;42.678;23.288;2023-09-19T07:25:21;20.70;99.90
21092;DHT22;10704;42.678;23.288;2023-09-19T07:27:46;20.80;99.90
21092;DHT22;10704;42.678;23.288;2023-09-19T07:30:13;20.80;99.90
21092;DHT22;10704;42.678;23.288;2023-09-19T07:32:40;20.90;99.90
21092;DHT22;10704;42.678;23.288;2023-09-19T07:35:06;21.00;99.90
21092;DHT22;10704;42.678;23.288;2023-09-19T07:37:32;20.60;99.90
21092;DHT22;10704;42.678;23.288;2023-09-19T07:40:00;20.40;99.90
21092;DHT22;10704;42.678;23.288;2023-09-19T07:42:27;20.40;99.90
21092;DHT22;10704;42.678;23.288;2023-09-19T07:44:53;20.70;99.90
21092;DHT22;10704;42.678;23.288;2023-09-19T07:47:20;20.90;99.90
21092;DHT22;10704;42.678;23.288;2023-09-19T07:49:47;21.20;99.90
21092;DHT22;10704;42.678;23.288;2023-09-19T07:52:13;21.50;99.90
21092;DHT22;10704;42.678;23.288;2023-09-19T07:54:39;21.60;99.90
21092;DHT22;10704;42.678;23.288;2023-09-19T07:57:07;21.70;99.90
21092;DHT22;10704;42.678;23.288;2023-09-19T07:59:33;21.90;99.90
21092;DHT22;10704;42.678;23.288;2023-09-19T08:01:59;21.70;99.90
21092;DHT22;10704;42.678;23.288;2023-09-19T08:04:26;21.70;99.90
21092;DHT22;10704;42.678;23.288;2023-09-19T08:06:52;21.90;99.90
21092;DHT22;10704;42.678;23.288;2023-09-19T08:09:18;22.00;99.90
21092;DHT22;10704;42.678;23.288;2023-09-19T08:11:47;22.30;99.90
21092;DHT22;10704;42.678;23.288;2023-09-19T08:14:13;22.40;99.90
21092;DHT22;10704;42.678;23.288;2023-09-19T08:16:40;22.60;99.90
21092;DHT22;10704;42.678;23.288;2023-09-19T08:19:06;22.80;99.90
21092;DHT22;10704;42.678;23.288;2023-09-19T08:21:32;23.00;99.90
21092;DHT22;10704;42.678;23.288;2023-09-19T08:23:57;23.00;99.90
21092;DHT22;10704;42.678;23.288;2023-09-19T08:26:23;23.20;99.90
21092;DHT22;10704;42.678;23.288;2023-09-19T08:28:50;23.20;99.90
21092;DHT22;10704;42.678;23.288;2023-09-19T08:31:17;22.90;99.90
21092;DHT22;10704;42.678;23.288;2023-09-19T08:33:43;22.80;99.90
21092;DHT22;10704;42.678;23.288;2023-09-19T08:36:17;22.70;99.90
21092;DHT22;10704;42.678;23.288;2023-09-19T08:38:43;23.20;99.90
21092;DHT22;10704;42.678;23.288;2023-09-19T08:41:09;23.90;99.90
21092;DHT22;10704;42.678;23.288;2023-09-19T08:43:35;24.10;99.90
21092;DHT22;10704;42.678;23.288;2023-09-19T08:46:10;24.30;99.90
21092;DHT22;10704;42.678;23.288;2023-09-19T08:48:46;24.80;99.60
21092;DHT22;10704;42.678;23.288;2023-09-19T08:51:21;25.20;97.30
21092;DHT22;10704;42.678;23.288;2023-09-19T08:54:07;25.30;95.70
21092;DHT22;10704;42.678;23.288;2023-09-19T08:56:35;25.10;95.40
21092;DHT22;10704;42.678;23.288;2023-09-19T08:59:06;25.00;95.00
21092;DHT22;10704;42.678;23.288;2023-09-19T09:01:38;24.70;95.30
21092;DHT22;10704;42.678;23.288;2023-09-19T09:04:08;24.30;96.60
21092;DHT22;10704;42.678;23.288;2023-09-19T09:06:38;24.40;97.10
21092;DHT22;10704;42.678;23.288;2023-09-19T09:09:08;24.50;96.90
21092;DHT22;10704;42.678;23.288;2023-09-19T09:11:35;24.70;96.80
21092;DHT22;10704;42.678;23.288;2023-09-19T09:14:03;24.90;96.10
21092;DHT22;10704;42.678;23.288;2023-09-19T09:16:30;24.60;96.40
21092;DHT22;10704;42.678;23.288;2023-09-19T09:18:56;23.90;97.30
21092;DHT22;10704;42.678;23.288;2023-09-19T09:21:25;24.40;97.40
21092;DHT22;10704;42.678;23.288;2023-09-19T09:23:51;25.30;95.20
21092;DHT22;10704;42.678;23.288;2023-09-19T09:26:40;25.60;94.50
21092;DHT22;10704;42.678;23.288;2023-09-19T09:29:07;26.20;93.10
21092;DHT22;10704;42.678;23.288;2023-09-19T09:31:32;26.10;92.00
21092;DHT22;10704;42.678;23.288;2023-09-19T09:33:58;26.40;91.50
21092;DHT22;10704;42.678;23.288;2023-09-19T09:36:35;26.30;90.90
21092;DHT22;10704;42.678;23.288;2023-09-19T09:39:02;26.50;90.50
21092;DHT22;10704;42.678;23.288;2023-09-19T09:41:42;27.10;90.00
21092;DHT22;10704;42.678;23.288;2023-09-19T09:44:17;28.00;87.50
21092;DHT22;10704;42.678;23.288;2023-09-19T09:46:47;29.30;81.40
21092;DHT22;10704;42.678;23.288;2023-09-19T09:49:26;30.40;76.50
21092;DHT22;10704;42.678;23.288;2023-09-19T09:52:05;30.50;73.40
21092;DHT22;10704;42.678;23.288;2023-09-19T09:54:59;29.60;74.70
21092;DHT22;10704;42.678;23.288;2023-09-19T09:57:26;28.90;75.30
21092;DHT22;10704;42.678;23.288;2023-09-19T09:59:56;28.00;76.60
21092;DHT22;10704;42.678;23.288;2023-09-19T10:02:42;27.60;78.80
21092;DHT22;10704;42.678;23.288;2023-09-19T10:05:20;26.90;80.60
21092;DHT22;10704;42.678;23.288;2023-09-19T10:07:50;26.40;82.50
21092;DHT22;10704;42.678;23.288;2023-09-19T10:10:36;26.10;84.40
21092;DHT22;10704;42.678;23.288;2023-09-19T10:13:06;26.00;84.60
21092;DHT22;10704;42.678;23.288;2023-09-19T10:15:33;26.00;84.60
21092;DHT22;10704;42.678;23.288;2023-09-19T10:18:04;25.50;86.30
21092;DHT22;10704;42.678;23.288;2023-09-19T10:20:31;25.50;87.80
21092;DHT22;10704;42.678;23.288;2023-09-19T10:23:08;25.80;87.70
21092;DHT22;10704;42.678;23.288;2023-09-19T10:25:43;25.50;87.40
21092;DHT22;10704;42.678;23.288;2023-09-19T10:28:12;25.50;87.40
21092;DHT22;10704;42.678;23.288;2023-09-19T10:30:48;25.70;87.50
21092;DHT22;10704;42.678;23.288;2023-09-19T10:33:17;25.30;88.20
21092;DHT22;10704;42.678;23.288;2023-09-19T10:35:47;25.60;87.70
21092;DHT22;10704;42.678;23.288;2023-09-19T10:38:16;25.50;86.80
21092;DHT22;10704;42.678;23.288;2023-09-19T10:40:44;25.50;88.00
21092;DHT22;10704;42.678;23.288;2023-09-19T10:43:16;25.00;88.00
21092;DHT22;10704;42.678;23.288;2023-09-19T10:45:47;24.20;91.00
21092;DHT22;10704;42.678;23.288;2023-09-19T10:48:19;24.40;91.40
21092;DHT22;10704;42.678;23.288;2023-09-19T10:53:43;24.80;90.90
21092;DHT22;10704;42.678;23.288;2023-09-19T10:56:23;25.10;91.00
21092;DHT22;10704;42.678;23.288;2023-09-19T10:58:50;25.40;90.50
21092;DHT22;10704;42.678;23.288;2023-09-19T11:01:16;25.60;90.00
21092;DHT22;10704;42.678;23.288;2023-09-19T11:03:44;25.60;89.00
21092;DHT22;10704;42.678;23.288;2023-09-19T11:06:17;25.80;88.30
21092;DHT22;10704;42.678;23.288;2023-09-19T11:09:03;25.90;87.60
21092;DHT22;10704;42.678;23.288;2023-09-19T11:11:43;25.90;87.40
21092;DHT22;10704;42.678;23.288;2023-09-19T11:17:29;26.20;86.40
21092;DHT22;10704;42.678;23.288;2023-09-19T11:25:47;26.50;84.50
21092;DHT22;10704;42.678;23.288;2023-09-19T11:30:46;26.60;83.50
21092;DHT22;10704;42.678;23.288;2023-09-19T11:43:49;27.20;81.20
21092;DHT22;10704;42.678;23.288;2023-09-19T11:46:17;27.10;81.80
21092;DHT22;10704;42.678;23.288;2023-09-19T11:52:35;27.50;81.10
21092;DHT22;10704;42.678;23.288;2023-09-19T11:55:04;27.50;80.10
21092;DHT22;10704;42.678;23.288;2023-09-19T11:57:30;27.40;81.00
21092;DHT22;10704;42.678;23.288;2023-09-19T11:59:57;27.40;81.10
21092;DHT22;10704;42.678;23.288;2023-09-19T12:02:38;26.90;82.20
21092;DHT22;10704;42.678;23.288;2023-09-19T12:05:06;27.20;82.20
21092;DHT22;10704;42.678;23.288;2023-09-19T12:07:45;28.00;80.80
21092;DHT22;10704;42.678;23.288;2023-09-19T12:10:13;28.70;79.10
21092;DHT22;10704;42.678;23.288;2023-09-19T12:12:47;28.30;78.20
21092;DHT22;10704;42.678;23.288;2023-09-19T12:15:15;28.30;78.70
21092;DHT22;10704;42.678;23.288;2023-09-19T12:21:35;28.90;76.60
21092;DHT22;10704;42.678;23.288;2023-09-19T12:24:07;28.70;74.30
21092;DHT22;10704;42.678;23.288;2023-09-19T12:30:29;30.20;70.40
21092;DHT22;10704;42.678;23.288;2023-09-19T12:32:59;30.30;70.70
21092;DHT22;10704;42.678;23.288;2023-09-19T12:35:29;30.30;69.60
21092;DHT22;10704;42.678;23.288;2023-09-19T12:37:56;30.60;68.70
21092;DHT22;10704;42.678;23.288;2023-09-19T12:40:23;30.70;68.10
21092;DHT22;10704;42.678;23.288;2023-09-19T12:42:54;31.10;67.80
21092;DHT22;10704;42.678;23.288;2023-09-19T12:45:30;30.50;67.00
21092;DHT22;10704;42.678;23.288;2023-09-19T12:48:18;30.00;68.30
21092;DHT22;10704;42.678;23.288;2023-09-19T12:51:07;29.20;69.80
21092;DHT22;10704;42.678;23.288;2023-09-19T12:57:25;29.40;70.70
21092;DHT22;10704;42.678;23.288;2023-09-19T13:03:39;30.20;69.00
21092;DHT22;10704;42.678;23.288;2023-09-19T13:06:06;31.50;66.00
21092;DHT22;10704;42.678;23.288;2023-09-19T13:08:35;31.50;65.40
21092;DHT22;10704;42.678;23.288;2023-09-19T13:11:12;31.60;64.80
21092;DHT22;10704;42.678;23.288;2023-09-19T13:13:48;31.40;64.80
21092;DHT22;10704;42.678;23.288;2023-09-19T13:16:15;30.80;65.40
21092;DHT22;10704;42.678;23.288;2023-09-19T13:18:47;30.20;67.10
21092;DHT22;10704;42.678;23.288;2023-09-19T13:21:17;31.00;66.10
21092;DHT22;10704;42.678;23.288;2023-09-19T13:23:55;31.20;65.70
21092;DHT22;10704;42.678;23.288;2023-09-19T13:30:12;30.00;67.30
21092;DHT22;10704;42.678;23.288;2023-09-19T13:36:26;30.40;67.00
21092;DHT22;10704;42.678;23.288;2023-09-19T13:42:42;30.80;66.70
21092;DHT22;10704;42.678;23.288;2023-09-19T13:45:08;30.90;66.20
21092;DHT22;10704;42.678;23.288;2023-09-19T13:47:39;30.70;66.40
21092;DHT22;10704;42.678;23.288;2023-09-19T13:50:06;31.20;65.50
21092;DHT22;10704;42.678;23.288;2023-09-19T13:52:32;31.00;65.50
21092;DHT22;10704;42.678;23.288;2023-09-19T13:54:58;30.70;65.90
21092;DHT22;10704;42.678;23.288;2023-09-19T13:57:25;30.30;66.80
21092;DHT22;10704;42.678;23.288;2023-09-19T13:59:52;30.40;67.30
21092;DHT22;10704;42.678;23.288;2023-09-19T14:02:20;30.60;66.50
21092;DHT22;10704;42.678;23.288;2023-09-19T14:04:49;30.50;66.70
21092;DHT22;10704;42.678;23.288;2023-09-19T14:07:15;30.70;66.10
21092;DHT22;10704;42.678;23.288;2023-09-19T14:09:43;30.70;65.90
21092;DHT22;10704;42.678;23.288;2023-09-19T14:12:09;31.50;65.20
21092;DHT22;10704;42.678;23.288;2023-09-19T14:14:36;32.00;63.50
21092;DHT22;10704;42.678;23.288;2023-09-19T14:20:49;31.20;64.70
21092;DHT22;10704;42.678;23.288;2023-09-19T14:23:18;30.90;64.20
21092;DHT22;10704;42.678;23.288;2023-09-19T14:25:44;30.20;66.10
21092;DHT22;10704;42.678;23.288;2023-09-19T14:28:10;30.30;65.90
21092;DHT22;10704;42.678;23.288;2023-09-19T14:30:36;30.40;65.90
21092;DHT22;10704;42.678;23.288;2023-09-19T14:33:03;30.10;66.50
21092;DHT22;10704;42.678;23.288;2023-09-19T14:35:29;30.30;66.50
21092;DHT22;10704;42.678;23.288;2023-09-19T14:37:55;30.30;66.60
21092;DHT22;10704;42.678;23.288;2023-09-19T14:40:22;30.30;66.70
21092;DHT22;10704;42.678;23.288;2023-09-19T14:42:48;30.20;66.30
21092;DHT22;10704;42.678;23.288;2023-09-19T14:45:14;30.20;65.70
21092;DHT22;10704;42.678;23.288;2023-09-19T14:47:46;29.30;67.70
21092;DHT22;10704;42.678;23.288;2023-09-19T14:50:12;29.30;68.50
21092;DHT22;10704;42.678;23.288;2023-09-19T14:52:38;29.50;68.10
21092;DHT22;10704;42.678;23.288;2023-09-19T14:55:06;29.20;68.80
21092;DHT22;10704;42.678;23.288;2023-09-19T14:57:34;29.20;68.80
21092;DHT22;10704;42.678;23.288;2023-09-19T15:00:00;29.00;69.00
21092;DHT22;10704;42.678;23.288;2023-09-19T15:02:26;28.90;69.50
21092;DHT22;10704;42.678;23.288;2023-09-19T15:04:52;28.50;70.00
21092;DHT22;10704;42.678;23.288;2023-09-19T15:07:18;28.30;70.40
21092;DHT22;10704;42.678;23.288;2023-09-19T15:09:44;28.20;71.40
21092;DHT22;10704;42.678;23.288;2023-09-19T15:12:11;28.10;71.40
21092;DHT22;10704;42.678;23.288;2023-09-19T15:14:40;28.20;72.40
21092;DHT22;10704;42.678;23.288;2023-09-19T15:17:07;28.10;71.80
21092;DHT22;10704;42.678;23.288;2023-09-19T15:19:34;28.20;72.00
21092;DHT22;10704;42.678;23.288;2023-09-19T15:22:00;28.20;71.90
21092;DHT22;10704;42.678;23.288;2023-09-19T15:24:26;28.00;72.30
21092;DHT22;10704;42.678;23.288;2023-09-19T15:26:53;27.90;73.00
21092;DHT22;10704;42.678;23.288;2023-09-19T15:29:21;27.70;73.10
21092;DHT22;10704;42.678;23.288;2023-09-19T15:31:48;27.40;73.70
21092;DHT22;10704;42.678;23.288;2023-09-19T15:34:15;27.30;74.60
21092;DHT22;10704;42.678;23.288;2023-09-19T15:36:41;27.20;75.10
21092;DHT22;10704;42.678;23.288;2023-09-19T15:39:07;27.20;75.30
21092;DHT22;10704;42.678;23.288;2023-09-19T15:41:45;27.20;75.50
21092;DHT22;10704;42.678;23.288;2023-09-19T15:44:15;26.80;76.50
21092;DHT22;10704;42.678;23.288;2023-09-19T15:46:42;26.60;77.40
21092;DHT22;10704;42.678;23.288;2023-09-19T15:49:09;26.50;77.90
21092;DHT22;10704;42.678;23.288;2023-09-19T15:51:35;26.40;78.30
21092;DHT22;10704;42.678;23.288;2023-09-19T15:54:07;26.40;78.50
21092;DHT22;10704;42.678;23.288;2023-09-19T15:56:33;26.40;78.80
21092;DHT22;10704;42.678;23.288;2023-09-19T15:59:02;26.20;79.50
21092;DHT22;10704;42.678;23.288;2023-09-19T16:01:28;25.90;82.90
21092;DHT22;10704;42.678;23.288;2023-09-19T16:03:54;25.60;85.20
21092;DHT22;10704;42.678;23.288;2023-09-19T16:06:25;25.40;87.20
21092;DHT22;10704;42.678;23.288;2023-09-19T16:08:54;25.40;88.70
21092;DHT22;10704;42.678;23.288;2023-09-19T16:11:22;25.20;90.30
21092;DHT22;10704;42.678;23.288;2023-09-19T16:13:51;24.90;91.40
21092;DHT22;10704;42.678;23.288;2023-09-19T16:16:19;24.70;92.70
21092;DHT22;10704;42.678;23.288;2023-09-19T16:19:14;24.50;94.00
21092;DHT22;10704;42.678;23.288;2023-09-19T16:21:41;24.40;95.40
21092;DHT22;10704;42.678;23.288;2023-09-19T16:24:09;24.30;96.60
21092;DHT22;10704;42.678;23.288;2023-09-19T16:26:36;24.30;97.70
21092;DHT22;10704;42.678;23.288;2023-09-19T16:29:05;24.40;98.50
21092;DHT22;10704;42.678;23.288;2023-09-19T16:31:32;24.30;99.40
21092;DHT22;10704;42.678;23.288;2023-09-19T16:33:58;24.20;99.90
21092;DHT22;10704;42.678;23.288;2023-09-19T16:36:28;24.10;99.90
21092;DHT22;10704;42.678;23.288;2023-09-19T16:38:54;24.00;99.90
21092;DHT22;10704;42.678;23.288;2023-09-19T16:41:20;23.80;99.90
21092;DHT22;10704;42.678;23.288;2023-09-19T16:43:46;23.70;99.90
21092;DHT22;10704;42.678;23.288;2023-09-19T16:46:13;23.60;99.90